createdAt,value
2022-10-10T00:00:07.969Z,85.39
2022-10-10T00:01:48.030Z,86.23
2022-10-10T00:03:11.991Z,86.15
2022-10-10T00:04:22.823Z,86.13
2022-10-10T00:07:02.434Z,85.61
2022-10-10T00:08:11.972Z,85.74
2022-10-10T00:09:23.276Z,86.62
2022-10-10T00:10:32.719Z,86.55
2022-10-10T00:12:35.635Z,86.61
2022-10-10T00:13:51.360Z,86.78
2022-10-10T00:15:01.380Z,86.93
2022-10-10T00:16:11.337Z,86.65
2022-10-10T00:17:24.015Z,86.49
2022-10-10T00:18:33.350Z,86.44
2022-10-10T00:19:45.264Z,86.87
2022-10-10T00:20:57.864Z,87.09
2022-10-10T00:22:09.848Z,87.57
2022-10-10T00:23:25.481Z,87.85
2022-10-10T00:24:41.481Z,87.86
2022-10-10T00:25:47.248Z,87.67
2022-10-10T00:26:52.182Z,88.58
2022-10-10T00:28:01.899Z,88.87
2022-10-10T00:29:11.703Z,88.96
2022-10-10T00:30:15.946Z,89.19
2022-10-10T00:31:20.423Z,89.00
2022-10-10T00:32:28.215Z,89.16
2022-10-10T00:33:32.340Z,88.94
2022-10-10T00:34:36.815Z,88.67
2022-10-10T00:35:42.512Z,88.42
2022-10-10T00:36:49.465Z,88.60
2022-10-10T00:37:54.499Z,88.45
2022-10-10T00:39:07.270Z,89.07
2022-10-10T00:40:12.556Z,88.39
2022-10-10T00:41:17.297Z,88.85
2022-10-10T00:42:26.446Z,88.70
2022-10-10T00:43:32.905Z,88.62
2022-10-10T00:44:39.629Z,89.14
2022-10-10T00:45:46.359Z,88.64
2022-10-10T00:46:54.813Z,88.64
2022-10-10T00:48:10.792Z,88.81
2022-10-10T00:49:21.076Z,88.80
2022-10-10T00:50:25.703Z,89.10
2022-10-10T00:51:30.012Z,89.27
2022-10-10T00:52:35.286Z,89.17
2022-10-10T00:54:07.695Z,89.41
2022-10-10T00:55:17.146Z,89.01
2022-10-10T00:56:30.071Z,89.36
2022-10-10T00:57:34.481Z,89.00
2022-10-10T00:58:43.704Z,89.36
2022-10-10T00:59:51.001Z,89.28
2022-10-10T01:00:56.928Z,88.83
2022-10-10T01:02:01.758Z,89.30
2022-10-10T01:03:06.068Z,89.45
2022-10-10T01:04:45.860Z,89.06
2022-10-10T01:05:51.860Z,89.79
2022-10-10T01:06:56.816Z,89.48
2022-10-10T01:08:05.972Z,89.56
2022-10-10T01:09:10.383Z,89.48
2022-10-10T01:10:19.594Z,89.01
2022-10-10T01:11:26.013Z,89.68
2022-10-10T01:13:07.493Z,90.03
2022-10-10T01:14:42.239Z,90.08
2022-10-10T01:15:58.524Z,89.75
2022-10-10T01:17:46.997Z,90.07
2022-10-10T01:19:26.629Z,90.61
2022-10-10T01:20:53.510Z,90.60
2022-10-10T01:22:26.359Z,91.02
2022-10-10T01:23:50.489Z,90.36
2022-10-10T01:25:31.683Z,90.99
2022-10-10T01:26:44.378Z,90.46
2022-10-10T01:28:13.608Z,90.16
2022-10-10T01:29:33.127Z,90.31
2022-10-10T01:30:37.190Z,90.00
2022-10-10T01:31:47.084Z,89.81
2022-10-10T01:33:18.776Z,90.29
2022-10-10T01:34:54.681Z,90.11
2022-10-10T01:36:40.705Z,91.28
2022-10-10T01:38:33.167Z,91.40
2022-10-10T01:40:08.138Z,91.32
2022-10-10T01:41:22.412Z,91.61
2022-10-10T01:42:30.941Z,91.84
2022-10-10T01:43:37.872Z,92.11
2022-10-10T01:44:47.239Z,92.41
2022-10-10T01:45:54.690Z,92.26
2022-10-10T01:46:59.778Z,91.95
2022-10-10T01:48:07.174Z,92.31
2022-10-10T01:49:11.006Z,92.10
2022-10-10T01:50:21.142Z,92.24
2022-10-10T01:52:17.265Z,92.26
2022-10-10T01:54:17.678Z,92.19
2022-10-10T01:55:55.141Z,92.79
2022-10-10T01:57:23.827Z,92.41
2022-10-10T01:58:47.148Z,92.21
2022-10-10T02:00:09.423Z,92.41
2022-10-10T02:02:59.752Z,93.01
2022-10-10T02:04:27.924Z,93.00
2022-10-10T02:06:14.051Z,93.23
2022-10-10T02:08:04.251Z,92.86
2022-10-10T02:09:20.634Z,92.80
2022-10-10T02:10:33.824Z,92.34
2022-10-10T02:11:41.593Z,92.53
2022-10-10T02:12:49.268Z,92.34
2022-10-10T02:14:06.002Z,92.57
2022-10-10T02:15:25.148Z,92.41
2022-10-10T02:16:47.386Z,92.36
2022-10-10T02:18:02.455Z,92.53
2022-10-10T02:19:15.153Z,92.48
2022-10-10T02:20:26.456Z,92.19
2022-10-10T02:21:35.660Z,92.54
2022-10-10T02:22:43.180Z,92.43
2022-10-10T02:23:52.774Z,92.25
2022-10-10T02:25:02.073Z,92.78
2022-10-10T02:26:16.644Z,92.70
2022-10-10T02:27:49.529Z,93.81
2022-10-10T02:29:16.077Z,93.80
2022-10-10T02:30:23.844Z,93.86
2022-10-10T02:31:56.816Z,94.23
2022-10-10T02:33:06.309Z,94.10
2022-10-10T02:34:25.944Z,94.52
2022-10-10T02:35:41.761Z,94.87
2022-10-10T02:37:02.673Z,94.96
2022-10-10T02:38:12.186Z,95.32
2022-10-10T02:39:31.536Z,95.27
2022-10-10T02:40:42.623Z,94.96
2022-10-10T02:41:50.868Z,95.04
2022-10-10T02:42:59.575Z,95.10
2022-10-10T02:44:04.745Z,95.07
2022-10-10T02:45:09.312Z,94.76
2022-10-10T02:46:15.020Z,95.07
2022-10-10T02:47:18.969Z,95.33
2022-10-10T02:48:22.647Z,95.35
2022-10-10T02:49:35.166Z,95.33
2022-10-10T02:50:38.745Z,95.29
2022-10-10T02:51:42.708Z,94.96
2022-10-10T02:52:50.275Z,94.68
2022-10-10T02:53:54.264Z,95.54
2022-10-10T02:54:59.918Z,95.42
2022-10-10T02:56:08.329Z,95.06
2022-10-10T02:57:17.011Z,94.88
2022-10-10T02:58:20.556Z,95.00
2022-10-10T02:59:25.831Z,94.73
2022-10-10T03:00:30.555Z,94.65
2022-10-10T03:01:34.349Z,94.18
2022-10-10T03:02:50.133Z,94.30
2022-10-10T03:03:54.287Z,94.33
2022-10-10T03:05:01.989Z,94.53
2022-10-10T03:06:06.496Z,94.57
2022-10-10T03:07:10.305Z,94.56
2022-10-10T03:08:14.328Z,94.66
2022-10-10T03:09:18.104Z,94.67
2022-10-10T03:10:21.704Z,94.71
2022-10-10T03:11:25.365Z,94.83
2022-10-10T03:12:29.210Z,94.45
2022-10-10T03:13:33.361Z,94.53
2022-10-10T03:14:37.085Z,94.08
2022-10-10T03:15:40.649Z,93.94
2022-10-10T03:16:49.461Z,93.57
2022-10-10T03:17:53.318Z,93.83
2022-10-10T03:18:57.177Z,93.54
2022-10-10T03:20:00.865Z,93.08
2022-10-10T03:21:05.049Z,92.91
2022-10-10T03:22:08.747Z,92.79
2022-10-10T03:23:13.892Z,92.67
2022-10-10T03:24:17.768Z,93.00
2022-10-10T03:25:21.325Z,92.99
2022-10-10T03:26:24.848Z,93.33
2022-10-10T03:27:28.459Z,93.64
2022-10-10T03:28:32.587Z,93.99
2022-10-10T03:29:40.416Z,94.13
2022-10-10T03:30:44.541Z,94.08
2022-10-10T03:31:48.540Z,93.84
2022-10-10T03:32:52.189Z,93.83
2022-10-10T03:33:56.788Z,94.61
2022-10-10T03:35:00.496Z,94.59
2022-10-10T03:36:04.916Z,94.42
2022-10-10T03:37:08.445Z,94.62
2022-10-10T03:38:16.179Z,94.69
2022-10-10T03:39:19.663Z,94.48
2022-10-10T03:40:24.546Z,94.82
2022-10-10T03:41:28.687Z,94.82
2022-10-10T03:42:32.532Z,95.08
2022-10-10T03:43:36.442Z,95.00
2022-10-10T03:44:40.035Z,94.88
2022-10-10T03:45:47.873Z,94.87
2022-10-10T03:46:51.830Z,94.63
2022-10-10T03:47:55.555Z,94.57
2022-10-10T03:48:59.057Z,94.76
2022-10-10T03:50:02.943Z,94.15
2022-10-10T03:51:07.601Z,94.00
2022-10-10T03:52:11.445Z,94.54
2022-10-10T03:53:15.194Z,94.38
2022-10-10T03:54:18.914Z,94.37
2022-10-10T03:55:22.601Z,94.60
2022-10-10T03:56:28.388Z,94.66
2022-10-10T03:57:32.693Z,94.64
2022-10-10T03:58:36.998Z,94.19
2022-10-10T03:59:41.737Z,94.31
2022-10-10T04:00:45.580Z,94.12
2022-10-10T04:02:00.591Z,93.98
2022-10-10T04:03:08.574Z,94.08
2022-10-10T04:04:22.535Z,94.26
2022-10-10T04:05:30.836Z,94.06
2022-10-10T04:06:38.729Z,94.22
2022-10-10T04:08:01.104Z,94.20
2022-10-10T04:09:09.902Z,94.59
2022-10-10T04:10:18.638Z,94.95
2022-10-10T04:11:24.793Z,94.71
2022-10-10T04:12:31.478Z,94.88
2022-10-10T04:13:38.372Z,94.78
2022-10-10T04:14:43.852Z,94.79
2022-10-10T04:15:56.818Z,94.59
2022-10-10T04:17:03.333Z,94.48
2022-10-10T04:18:09.887Z,94.89
2022-10-10T04:19:28.898Z,95.00
2022-10-10T04:20:33.235Z,95.27
2022-10-10T04:21:50.601Z,94.99
2022-10-10T04:22:59.721Z,94.74
2022-10-10T04:24:04.358Z,94.61
2022-10-10T04:25:21.191Z,94.72
2022-10-10T04:26:28.682Z,94.45
2022-10-10T04:27:41.646Z,94.55
2022-10-10T04:28:50.508Z,94.56
2022-10-10T04:29:54.696Z,94.24
2022-10-10T04:31:04.027Z,94.39
2022-10-10T04:32:07.710Z,94.15
2022-10-10T04:33:12.900Z,94.08
2022-10-10T04:34:16.648Z,94.09
2022-10-10T04:35:23.710Z,93.75
2022-10-10T04:36:30.852Z,94.12
2022-10-10T04:37:47.764Z,94.10
2022-10-10T04:38:53.928Z,94.03
2022-10-10T04:40:04.706Z,93.70
2022-10-10T04:41:15.915Z,93.84
2022-10-10T04:42:22.843Z,93.34
2022-10-10T04:43:29.780Z,93.41
2022-10-10T04:44:59.018Z,93.38
2022-10-10T04:46:02.750Z,93.32
2022-10-10T04:47:08.099Z,93.08
2022-10-10T04:48:12.216Z,93.02
2022-10-10T04:49:18.654Z,92.82
2022-10-10T04:50:26.841Z,92.87
2022-10-10T04:51:33.093Z,92.57
2022-10-10T04:52:43.129Z,92.36
2022-10-10T04:53:50.476Z,92.47
2022-10-10T04:54:54.356Z,92.83
2022-10-10T04:55:58.150Z,92.40
2022-10-10T04:57:01.838Z,92.87
2022-10-10T04:58:05.384Z,92.93
2022-10-10T04:59:11.347Z,92.91
2022-10-10T05:00:17.033Z,92.65
2022-10-10T05:01:25.669Z,93.10
2022-10-10T05:02:33.157Z,93.15
2022-10-10T05:03:40.749Z,92.86
2022-10-10T05:04:53.064Z,93.16
2022-10-10T05:05:58.608Z,93.13
2022-10-10T05:07:02.343Z,93.16
2022-10-10T05:08:06.169Z,93.29
2022-10-10T05:09:10.049Z,93.08
2022-10-10T05:10:14.478Z,93.64
2022-10-10T05:11:19.024Z,93.51
2022-10-10T05:12:23.967Z,93.46
2022-10-10T05:13:28.015Z,93.40
2022-10-10T05:14:31.967Z,93.27
2022-10-10T05:15:38.033Z,93.44
2022-10-10T05:16:41.908Z,93.59
2022-10-10T05:17:45.593Z,93.79
2022-10-10T05:18:49.193Z,94.09
2022-10-10T05:19:53.858Z,93.68
2022-10-10T05:21:02.664Z,94.07
2022-10-10T05:22:07.466Z,94.05
2022-10-10T05:23:11.427Z,94.18
2022-10-10T05:24:15.117Z,94.31
2022-10-10T05:25:18.732Z,93.83
2022-10-10T05:26:22.616Z,93.76
2022-10-10T05:27:28.287Z,93.57
2022-10-10T05:28:35.467Z,93.40
2022-10-10T05:29:45.240Z,93.83
2022-10-10T05:30:51.545Z,93.48
2022-10-10T05:31:57.828Z,93.58
2022-10-10T05:33:01.708Z,93.64
2022-10-10T05:34:07.029Z,93.90
2022-10-10T05:35:12.389Z,93.85
2022-10-10T05:36:17.949Z,93.86
2022-10-10T05:37:22.044Z,94.00
2022-10-10T05:38:26.279Z,94.16
2022-10-10T05:39:35.875Z,94.09
2022-10-10T05:40:43.649Z,94.11
2022-10-10T05:41:47.729Z,94.30
2022-10-10T05:42:51.721Z,94.64
2022-10-10T05:43:55.727Z,94.38
2022-10-10T05:44:59.690Z,94.79
2022-10-10T05:46:04.178Z,94.87
2022-10-10T05:47:08.527Z,94.98
2022-10-10T05:48:12.624Z,94.82
2022-10-10T05:49:16.594Z,94.97
2022-10-10T05:50:36.564Z,95.11
2022-10-10T05:51:40.273Z,94.89
2022-10-10T05:52:44.163Z,94.73
2022-10-10T05:53:48.631Z,94.45
2022-10-10T05:54:52.951Z,94.48
2022-10-10T05:55:57.086Z,94.32
2022-10-10T05:57:03.702Z,94.38
2022-10-10T05:58:07.780Z,94.53
2022-10-10T05:59:11.850Z,94.67
2022-10-10T06:00:15.846Z,94.47
2022-10-10T06:01:19.630Z,94.54
2022-10-10T06:02:23.509Z,94.35
2022-10-10T06:03:27.136Z,94.75
2022-10-10T06:04:31.069Z,94.35
2022-10-10T06:05:37.029Z,94.39
2022-10-10T06:06:42.174Z,94.08
2022-10-10T06:08:04.779Z,94.09
2022-10-10T06:09:11.353Z,94.00
2022-10-10T06:10:15.045Z,94.61
2022-10-10T06:11:20.875Z,94.28
2022-10-10T06:12:25.369Z,94.63
2022-10-10T06:13:30.497Z,94.76
2022-10-10T06:14:34.429Z,94.99
2022-10-10T06:15:38.441Z,94.80
2022-10-10T06:16:43.579Z,94.51
2022-10-10T06:17:47.476Z,94.52
2022-10-10T06:18:57.178Z,94.62
2022-10-10T06:20:12.160Z,94.86
2022-10-10T06:21:20.447Z,94.65
2022-10-10T06:22:26.365Z,94.77
2022-10-10T06:23:30.202Z,94.68
2022-10-10T06:24:34.547Z,94.97
2022-10-10T06:25:41.325Z,95.09
2022-10-10T06:26:48.954Z,95.08
2022-10-10T06:28:02.269Z,95.05
2022-10-10T06:29:08.531Z,95.51
2022-10-10T06:30:17.270Z,95.00
2022-10-10T06:31:34.711Z,95.69
2022-10-10T06:32:43.837Z,96.01
2022-10-10T06:33:54.858Z,95.31
2022-10-10T06:35:07.002Z,95.81
2022-10-10T06:36:14.595Z,95.74
2022-10-10T06:37:19.714Z,95.35
2022-10-10T06:38:30.928Z,95.21
2022-10-10T06:39:38.405Z,95.27
2022-10-10T06:40:44.225Z,94.99
2022-10-10T06:41:52.973Z,94.87
2022-10-10T06:42:56.817Z,94.77
2022-10-10T06:44:01.058Z,94.46
2022-10-10T06:45:06.712Z,94.54
2022-10-10T06:46:13.869Z,94.91
2022-10-10T06:47:18.280Z,94.87
2022-10-10T06:48:23.532Z,94.30
2022-10-10T06:49:30.878Z,94.10
2022-10-10T06:50:39.272Z,93.84
2022-10-10T06:51:46.796Z,93.46
2022-10-10T06:52:51.522Z,93.51
2022-10-10T06:54:01.260Z,93.40
2022-10-10T06:55:07.927Z,92.92
2022-10-10T06:56:27.382Z,92.59
2022-10-10T06:57:31.479Z,92.19
2022-10-10T06:58:37.024Z,91.78
2022-10-10T06:59:41.055Z,92.24
2022-10-10T07:00:53.968Z,91.95
2022-10-10T07:01:57.858Z,91.94
2022-10-10T07:03:01.768Z,91.87
2022-10-10T07:04:07.530Z,91.51
2022-10-10T07:05:17.170Z,91.36
2022-10-10T07:06:21.392Z,91.36
2022-10-10T07:07:27.091Z,91.04
2022-10-10T07:08:34.874Z,90.55
2022-10-10T07:09:39.499Z,90.37
2022-10-10T07:10:44.644Z,90.26
2022-10-10T07:11:49.013Z,89.98
2022-10-10T07:12:53.306Z,89.72
2022-10-10T07:13:57.128Z,88.70
2022-10-10T07:15:00.951Z,87.00
2022-10-10T07:16:06.460Z,85.79
2022-10-10T07:17:11.987Z,83.77
2022-10-10T07:18:30.341Z,81.67
2022-10-10T07:19:37.578Z,80.44
2022-10-10T07:20:43.909Z,74.83
2022-10-10T07:21:47.608Z,73.98
2022-10-10T07:22:51.544Z,70.50
2022-10-10T07:23:56.283Z,67.60
2022-10-10T07:25:00.845Z,65.40
2022-10-10T07:26:14.485Z,60.17
2022-10-10T07:27:18.162Z,58.67
2022-10-10T07:28:22.041Z,56.89
2022-10-10T07:29:30.690Z,55.77
2022-10-10T07:30:41.177Z,52.84
2022-10-10T07:31:45.478Z,51.36
2022-10-10T07:32:50.612Z,48.01
2022-10-10T07:33:55.934Z,48.63
2022-10-10T07:35:00.813Z,47.03
2022-10-10T07:36:07.923Z,46.48
2022-10-10T07:37:15.622Z,45.08
2022-10-10T07:38:24.907Z,44.43
2022-10-10T07:39:30.450Z,44.45
2022-10-10T07:40:36.609Z,43.52
2022-10-10T07:41:40.964Z,41.81
2022-10-10T07:42:46.699Z,43.05
2022-10-10T07:43:59.254Z,42.49
2022-10-10T07:45:05.835Z,41.65
2022-10-10T07:46:20.038Z,41.21
2022-10-10T07:47:27.820Z,42.37
2022-10-10T07:48:34.276Z,41.21
2022-10-10T07:49:47.988Z,40.27
2022-10-10T07:51:09.621Z,39.10
2022-10-10T07:52:27.952Z,38.34
2022-10-10T07:53:33.082Z,36.53
2022-10-10T07:54:37.631Z,36.35
2022-10-10T07:55:43.656Z,35.80
2022-10-10T07:56:47.790Z,35.60
2022-10-10T07:57:59.602Z,33.90
2022-10-10T07:59:08.031Z,34.08
2022-10-10T08:00:15.438Z,33.61
2022-10-10T08:01:20.245Z,33.17
2022-10-10T08:02:29.558Z,32.28
2022-10-10T08:03:41.648Z,32.88
2022-10-10T08:04:46.104Z,32.40
2022-10-10T08:06:05.323Z,32.06
2022-10-10T08:07:09.162Z,30.78
2022-10-10T08:08:18.882Z,30.84
2022-10-10T08:09:27.609Z,30.65
2022-10-10T08:10:38.423Z,30.30
2022-10-10T08:11:42.771Z,30.46
2022-10-10T08:12:56.044Z,29.66
2022-10-10T08:14:01.780Z,29.32
2022-10-10T08:16:24.061Z,28.48
2022-10-10T08:17:28.453Z,29.22
2022-10-10T08:18:37.420Z,27.66
2022-10-10T08:19:56.464Z,27.88
2022-10-10T08:21:13.167Z,27.89
2022-10-10T08:22:29.092Z,27.32
2022-10-10T08:23:45.024Z,27.33
2022-10-10T08:24:49.825Z,27.07
2022-10-10T08:25:54.902Z,27.01
2022-10-10T08:26:58.836Z,26.36
2022-10-10T08:28:03.366Z,26.14
2022-10-10T08:29:08.739Z,26.68
2022-10-10T08:30:13.868Z,26.68
2022-10-10T08:31:21.400Z,27.20
2022-10-10T08:32:25.671Z,26.52
2022-10-10T08:33:33.593Z,26.35
2022-10-10T08:34:50.778Z,26.27
2022-10-10T08:35:55.423Z,26.79
2022-10-10T08:36:59.292Z,26.27
2022-10-10T08:38:05.335Z,26.79
2022-10-10T08:39:32.782Z,26.41
2022-10-10T08:40:53.178Z,26.75
2022-10-10T08:42:15.918Z,26.74
2022-10-10T08:43:47.144Z,26.45
2022-10-10T08:45:01.014Z,26.35
2022-10-10T08:46:29.835Z,26.07
2022-10-10T08:47:56.081Z,26.48
2022-10-10T08:49:14.345Z,27.12
2022-10-10T08:50:54.721Z,27.26
2022-10-10T08:52:41.104Z,27.78
2022-10-10T08:53:53.777Z,28.27
2022-10-10T08:55:02.489Z,28.12
2022-10-10T08:56:19.073Z,28.67
2022-10-10T08:57:33.896Z,28.56
2022-10-10T08:58:44.532Z,28.69
2022-10-10T08:59:57.923Z,28.52
2022-10-10T09:01:17.256Z,27.89
2022-10-10T09:02:55.796Z,27.75
2022-10-10T09:04:18.277Z,27.31
2022-10-10T09:05:40.668Z,27.31
2022-10-10T09:07:25.191Z,27.48
2022-10-10T09:09:43.660Z,27.23
2022-10-10T09:11:23.028Z,27.11
2022-10-10T09:13:13.878Z,26.76
2022-10-10T09:14:36.205Z,27.59
2022-10-10T09:15:57.061Z,27.98
2022-10-10T09:17:29.954Z,29.33
2022-10-10T09:19:24.232Z,31.39
2022-10-10T09:21:17.089Z,31.92
2022-10-10T09:22:41.202Z,32.52
2022-10-10T09:24:28.407Z,34.21
2022-10-10T09:25:49.707Z,35.29
2022-10-10T09:27:10.134Z,36.46
2022-10-10T09:28:34.374Z,37.26
2022-10-10T09:30:02.567Z,38.54
2022-10-10T09:31:22.417Z,38.90
2022-10-10T09:33:07.983Z,39.63
2022-10-10T09:34:22.828Z,40.15
2022-10-10T09:35:39.882Z,40.54
2022-10-10T09:36:47.573Z,40.91
2022-10-10T09:38:32.326Z,42.22
2022-10-10T09:39:53.080Z,42.57
2022-10-10T09:41:07.406Z,43.60
2022-10-10T09:42:20.042Z,43.67
2022-10-10T09:43:37.140Z,44.75
2022-10-10T09:44:45.596Z,45.39
2022-10-10T09:45:57.420Z,46.37
2022-10-10T09:47:01.532Z,46.27
2022-10-10T09:48:05.841Z,47.51
2022-10-10T09:49:15.918Z,47.89
2022-10-10T09:50:23.241Z,48.45
2022-10-10T09:51:27.056Z,48.33
2022-10-10T09:52:32.736Z,48.34
2022-10-10T09:53:36.496Z,48.37
2022-10-10T09:54:41.368Z,48.89
2022-10-10T09:55:49.782Z,48.87
2022-10-10T09:57:01.190Z,49.24
2022-10-10T09:58:36.974Z,49.30
2022-10-10T09:59:45.506Z,48.62
2022-10-10T10:00:54.368Z,48.75
2022-10-10T10:02:30.980Z,48.98
2022-10-10T10:03:36.589Z,48.35
2022-10-10T10:04:45.285Z,48.85
2022-10-10T10:06:23.055Z,49.87
2022-10-10T10:07:38.337Z,49.85
2022-10-10T10:08:47.967Z,50.84
2022-10-10T10:10:02.234Z,50.93
2022-10-10T10:11:42.087Z,51.07
2022-10-10T10:12:47.573Z,50.76
2022-10-10T10:14:02.896Z,51.20
2022-10-10T10:15:23.999Z,51.32
2022-10-10T10:16:39.613Z,51.36
2022-10-10T10:18:05.025Z,51.68
2022-10-10T10:19:39.279Z,52.43
2022-10-10T10:20:50.152Z,52.94
2022-10-10T10:21:55.948Z,52.35
2022-10-10T10:23:04.808Z,52.34
2022-10-10T10:24:39.476Z,52.64
2022-10-10T10:25:46.987Z,52.44
2022-10-10T10:26:52.169Z,52.60
2022-10-10T10:28:15.267Z,52.73
2022-10-10T10:29:32.469Z,52.40
2022-10-10T10:30:47.820Z,52.05
2022-10-10T10:32:24.605Z,52.23
2022-10-10T10:34:00.157Z,51.30
2022-10-10T10:35:31.173Z,50.92
2022-10-10T10:37:03.376Z,50.86
2022-10-10T10:38:34.347Z,50.59
2022-10-10T10:40:18.563Z,50.59
2022-10-10T10:41:37.809Z,50.03
2022-10-10T10:43:38.217Z,49.36
2022-10-10T10:45:25.293Z,49.08
2022-10-10T10:47:03.058Z,49.34
2022-10-10T10:48:37.524Z,49.12
2022-10-10T10:50:31.641Z,48.70
2022-10-10T10:52:12.325Z,48.32
2022-10-10T10:53:40.227Z,48.04
2022-10-10T10:55:01.122Z,47.75
2022-10-10T10:56:48.915Z,46.80
2022-10-10T11:00:21.766Z,46.61
2022-10-10T11:01:57.205Z,47.01
2022-10-10T11:05:16.629Z,46.71
2022-10-10T11:05:45.362Z,46.80
2022-10-10T11:07:20.707Z,46.46
2022-10-10T11:09:31.004Z,46.35
2022-10-10T11:11:10.723Z,45.48
2022-10-10T11:12:45.051Z,45.84
2022-10-10T11:14:48.393Z,45.98
2022-10-10T11:18:13.879Z,46.10
2022-10-10T11:19:57.206Z,46.11
2022-10-10T11:21:12.740Z,46.02
2022-10-10T11:22:22.473Z,46.01
2022-10-10T11:23:40.400Z,46.08
2022-10-10T11:25:06.841Z,45.66
2022-10-10T11:26:37.585Z,45.56
2022-10-10T11:27:50.731Z,45.68
2022-10-10T11:29:13.835Z,45.77
2022-10-10T11:30:23.882Z,45.68
2022-10-10T11:31:37.859Z,45.40
2022-10-10T11:32:54.034Z,45.65
2022-10-10T11:34:07.905Z,45.70
2022-10-10T11:35:46.561Z,46.39
2022-10-10T11:36:56.288Z,45.96
2022-10-10T11:38:22.629Z,46.29
2022-10-10T11:39:57.551Z,46.41
2022-10-10T11:41:25.547Z,46.29
2022-10-10T11:42:50.679Z,46.15
2022-10-10T11:44:04.738Z,46.98
2022-10-10T11:45:28.746Z,46.38
2022-10-10T11:46:42.891Z,46.29
2022-10-10T11:48:29.507Z,46.19
2022-10-10T11:49:46.747Z,46.38
2022-10-10T11:51:16.091Z,46.31
2022-10-10T11:52:57.711Z,46.51
2022-10-10T11:54:10.070Z,46.60
2022-10-10T11:55:31.629Z,46.42
2022-10-10T11:56:46.467Z,46.71
2022-10-10T11:58:05.110Z,46.49
2022-10-10T11:59:28.052Z,46.17
2022-10-10T12:00:46.273Z,46.01
2022-10-10T12:03:09.985Z,46.14
2022-10-10T12:04:16.207Z,45.88
2022-10-10T12:05:28.068Z,45.90
2022-10-10T12:06:32.928Z,46.11
2022-10-10T12:08:17.650Z,46.01
2022-10-10T12:09:43.600Z,46.20
2022-10-10T12:11:06.611Z,46.26
2022-10-10T12:12:31.531Z,46.22
2022-10-10T12:13:42.081Z,46.20
2022-10-10T12:15:14.211Z,46.29
2022-10-10T12:16:37.843Z,46.54
2022-10-10T12:17:57.244Z,46.51
2022-10-10T12:19:17.938Z,46.17
2022-10-10T12:20:37.857Z,45.83
2022-10-10T12:22:01.888Z,45.78
2022-10-10T12:23:15.402Z,45.99
2022-10-10T12:24:20.849Z,45.84
2022-10-10T12:25:47.789Z,45.93
2022-10-10T12:27:07.207Z,46.36
2022-10-10T12:28:18.615Z,46.32
2022-10-10T12:30:09.570Z,46.35
2022-10-10T12:31:13.428Z,46.38
2022-10-10T12:32:19.648Z,46.50
2022-10-10T12:33:33.918Z,45.85
2022-10-10T12:34:49.758Z,46.17
2022-10-10T12:36:20.090Z,46.10
2022-10-10T12:37:40.506Z,45.99
2022-10-10T12:39:09.779Z,45.94
2022-10-10T12:40:16.772Z,45.75
2022-10-10T12:41:53.799Z,45.49
2022-10-10T12:43:07.682Z,45.91
2022-10-10T12:44:50.611Z,45.07
2022-10-10T12:48:04.400Z,45.58
2022-10-10T12:49:29.636Z,45.85
2022-10-10T12:50:58.101Z,45.73
2022-10-10T12:52:14.009Z,45.43
2022-10-10T12:53:28.072Z,45.24
2022-10-10T12:54:49.698Z,45.01
2022-10-10T12:56:03.226Z,44.98
2022-10-10T12:57:37.571Z,44.78
2022-10-10T12:58:53.667Z,44.62
2022-10-10T13:00:26.997Z,44.45
2022-10-10T13:01:48.841Z,44.45
2022-10-10T13:03:05.150Z,44.49
2022-10-10T13:04:18.169Z,45.20
2022-10-10T13:05:31.948Z,45.07
2022-10-10T13:06:41.610Z,44.67
2022-10-10T13:07:48.318Z,45.02
2022-10-10T13:08:55.761Z,44.88
2022-10-10T13:10:24.397Z,44.87
2022-10-10T13:11:28.485Z,44.56
2022-10-10T13:12:35.335Z,44.58
2022-10-10T13:13:58.663Z,44.39
2022-10-10T13:15:02.855Z,44.22
2022-10-10T13:16:17.619Z,44.43
2022-10-10T13:17:40.454Z,43.87
2022-10-10T13:18:56.664Z,44.15
2022-10-10T13:20:05.869Z,44.51
2022-10-10T13:21:30.764Z,44.19
2022-10-10T13:22:37.280Z,44.12
2022-10-10T13:25:12.761Z,44.09
2022-10-10T13:26:31.349Z,43.79
2022-10-10T13:27:35.756Z,44.33
2022-10-10T13:28:45.605Z,44.16
2022-10-10T13:29:53.950Z,44.15
2022-10-10T13:31:16.569Z,43.91
2022-10-10T13:32:29.439Z,43.34
2022-10-10T13:33:34.513Z,43.68
2022-10-10T13:34:43.794Z,43.47
2022-10-10T13:35:50.696Z,43.57
2022-10-10T13:36:59.011Z,43.71
2022-10-10T13:38:03.435Z,43.25
2022-10-10T13:39:07.615Z,43.35
2022-10-10T13:40:17.201Z,43.19
2022-10-10T13:41:23.602Z,43.15
2022-10-10T13:42:41.029Z,43.19
2022-10-10T13:43:45.564Z,43.26
2022-10-10T13:44:54.209Z,43.13
2022-10-10T13:46:03.171Z,43.53
2022-10-10T13:47:46.482Z,43.49
2022-10-10T13:48:53.301Z,43.62
2022-10-10T13:49:57.866Z,43.54
2022-10-10T13:51:05.598Z,43.69
2022-10-10T13:52:24.197Z,43.78
2022-10-10T13:53:29.028Z,43.53
2022-10-10T13:54:49.289Z,43.32
2022-10-10T13:56:24.690Z,43.08
2022-10-10T13:57:31.404Z,43.30
2022-10-10T13:58:46.053Z,43.24
2022-10-10T14:00:20.379Z,43.05
2022-10-10T14:01:36.196Z,43.04
2022-10-10T14:02:44.633Z,43.42
2022-10-10T14:03:52.202Z,43.28
2022-10-10T14:05:01.005Z,43.07
2022-10-10T14:06:10.539Z,43.30
2022-10-10T14:09:39.249Z,43.32
2022-10-10T14:10:43.230Z,43.60
2022-10-10T14:11:53.609Z,43.55
2022-10-10T14:13:02.957Z,43.53
2022-10-10T14:14:20.517Z,43.48
2022-10-10T14:15:43.149Z,43.73
2022-10-10T14:17:08.640Z,43.45
2022-10-10T14:18:23.303Z,43.66
2022-10-10T14:19:29.106Z,43.58
2022-10-10T14:20:33.018Z,43.35
2022-10-10T14:21:37.657Z,43.46
2022-10-10T14:22:46.963Z,43.50
2022-10-10T14:23:51.965Z,43.45
2022-10-10T14:25:00.925Z,43.48
2022-10-10T14:26:18.216Z,43.51
2022-10-10T14:27:27.829Z,43.63
2022-10-10T14:28:37.263Z,43.27
2022-10-10T14:29:45.301Z,43.27
2022-10-10T14:30:53.707Z,43.74
2022-10-10T14:32:07.184Z,43.55
2022-10-10T14:33:18.129Z,43.39
2022-10-10T14:34:22.031Z,43.50
2022-10-10T14:35:35.732Z,43.52
2022-10-10T14:36:51.185Z,43.48
2022-10-10T14:38:01.111Z,43.68
2022-10-10T14:39:13.661Z,43.66
2022-10-10T14:40:32.524Z,43.82
2022-10-10T14:41:38.297Z,43.77
2022-10-10T14:42:42.676Z,43.92
2022-10-10T14:43:47.229Z,43.80
2022-10-10T14:44:51.175Z,43.92
2022-10-10T14:45:58.356Z,43.97
2022-10-10T14:47:07.825Z,44.11
2022-10-10T14:48:12.634Z,43.91
2022-10-10T14:49:23.823Z,44.06
2022-10-10T14:50:48.140Z,44.03
2022-10-10T14:51:53.607Z,44.12
2022-10-10T14:52:57.664Z,44.06
2022-10-10T14:54:13.906Z,44.24
2022-10-10T14:55:18.135Z,44.19
2022-10-10T14:56:21.545Z,44.19
2022-10-10T14:57:25.158Z,44.21
2022-10-10T14:58:29.680Z,44.42
2022-10-10T14:59:49.686Z,44.11
2022-10-10T15:00:54.418Z,44.44
2022-10-10T15:01:58.433Z,44.49
2022-10-10T15:03:02.645Z,44.33
2022-10-10T15:04:06.403Z,44.58
2022-10-10T15:05:17.451Z,44.60
2022-10-10T15:06:27.182Z,44.48
2022-10-10T15:07:30.628Z,44.56
2022-10-10T15:08:34.218Z,44.78
2022-10-10T15:09:42.978Z,44.74
2022-10-10T15:10:51.536Z,45.04
2022-10-10T15:11:55.249Z,44.88
2022-10-10T15:13:01.376Z,45.07
2022-10-10T15:14:06.410Z,45.09
2022-10-10T15:15:12.828Z,45.34
2022-10-10T15:16:16.349Z,45.24
2022-10-10T15:17:22.186Z,45.13
2022-10-10T15:18:53.242Z,45.38
2022-10-10T15:19:54.962Z,45.39
2022-10-10T15:21:00.097Z,45.32
2022-10-10T15:22:04.101Z,45.41
2022-10-10T15:23:12.286Z,45.51
2022-10-10T15:24:19.052Z,45.57
2022-10-10T15:25:29.633Z,45.56
2022-10-10T15:26:42.824Z,45.55
2022-10-10T15:27:52.740Z,45.64
2022-10-10T15:28:59.780Z,45.72
2022-10-10T15:30:09.885Z,45.76
2022-10-10T15:31:16.595Z,45.80
2022-10-10T15:32:23.112Z,45.81
2022-10-10T15:33:27.597Z,45.95
2022-10-10T15:34:31.198Z,45.85
2022-10-10T15:35:56.927Z,45.99
2022-10-10T15:37:17.262Z,46.25
2022-10-10T15:38:30.138Z,46.22
2022-10-10T15:41:13.328Z,46.43
2022-10-10T15:42:29.959Z,46.38
2022-10-10T15:43:54.517Z,46.75
2022-10-10T15:45:36.967Z,46.62
2022-10-10T15:46:49.520Z,46.94
2022-10-10T15:47:59.391Z,46.70
2022-10-10T15:49:03.668Z,46.99
2022-10-10T15:50:30.565Z,47.53
2022-10-10T15:51:41.567Z,47.25
2022-10-10T15:52:47.809Z,47.22
2022-10-10T15:53:52.758Z,47.59
2022-10-10T15:55:08.620Z,47.54
2022-10-10T15:56:19.964Z,47.53
2022-10-10T15:57:24.950Z,47.81
2022-10-10T15:58:34.930Z,47.86
2022-10-10T15:59:41.958Z,48.15